sensor_id;sensor_type;location;lat;lon;timestamp;pressure;altitude;pressure_sealevel;temperature;humidity
47761;BME280;33524;55.434;38.520;2024-03-06T00:00:04;101321.25;;;-4.61;77.86
47761;BME280;33524;55.434;38.520;2024-03-06T00:02:32;101326.38;;;-4.61;78.10
47761;BME280;33524;55.434;38.520;2024-03-06T00:05:00;101326.31;;;-4.72;77.99
47761;BME280;33524;55.434;38.520;2024-03-06T00:07:29;101327.22;;;-4.63;77.90
47761;BME280;33524;55.434;38.520;2024-03-06T00:09:57;101320.34;;;-4.68;77.79
47761;BME280;33524;55.434;38.520;2024-03-06T00:12:26;101326.38;;;-4.55;77.91
47761;BME280;33524;55.434;38.520;2024-03-06T00:14:54;101334.00;;;-4.72;77.57
47761;BME280;33524;55.434;38.520;2024-03-06T00:17:22;101327.12;;;-4.80;77.67
47761;BME280;33524;55.434;38.520;2024-03-06T00:19:50;101331.47;;;-4.73;77.85
47761;BME280;33524;55.434;38.520;2024-03-06T00:22:18;101331.50;;;-4.67;77.58
47761;BME280;33524;55.434;38.520;2024-03-06T00:24:51;101329.75;;;-4.71;77.31
47761;BME280;33524;55.434;38.520;2024-03-06T00:27:19;101308.28;;;-4.87;77.77
47761;BME280;33524;55.434;38.520;2024-03-06T00:29:47;101323.66;;;-4.92;77.36
47761;BME280;33524;55.434;38.520;2024-03-06T00:32:16;101346.94;;;-4.53;77.69
47761;BME280;33524;55.434;38.520;2024-03-06T00:34:44;101345.94;;;-4.80;77.03
47761;BME280;33524;55.434;38.520;2024-03-06T00:37:12;101353.69;;;-4.74;77.20
47761;BME280;33524;55.434;38.520;2024-03-06T00:39:40;101338.19;;;-4.89;76.52
47761;BME280;33524;55.434;38.520;2024-03-06T00:42:08;101342.53;;;-4.83;76.73
47761;BME280;33524;55.434;38.520;2024-03-06T00:44:37;101341.63;;;-4.87;76.65
47761;BME280;33524;55.434;38.520;2024-03-06T00:47:06;101345.94;;;-4.78;76.39
47761;BME280;33524;55.434;38.520;2024-03-06T00:49:34;101336.56;;;-4.72;76.73
47761;BME280;33524;55.434;38.520;2024-03-06T00:52:02;101340.06;;;-4.59;76.80
47761;BME280;33524;55.434;38.520;2024-03-06T00:54:32;101341.87;;;-4.41;76.19
47761;BME280;33524;55.434;38.520;2024-03-06T00:57:00;101339.22;;;-4.62;76.08
47761;BME280;33524;55.434;38.520;2024-03-06T00:59:29;101345.13;;;-4.74;76.30
47761;BME280;33524;55.434;38.520;2024-03-06T01:01:57;101340.91;;;-4.64;76.87
47761;BME280;33524;55.434;38.520;2024-03-06T01:04:26;101344.31;;;-4.66;76.29
47761;BME280;33524;55.434;38.520;2024-03-06T01:06:54;101332.34;;;-4.63;76.50
47761;BME280;33524;55.434;38.520;2024-03-06T01:09:22;101342.69;;;-4.50;76.29
47761;BME280;33524;55.434;38.520;2024-03-06T01:11:50;101345.16;;;-4.71;76.40
47761;BME280;33524;55.434;38.520;2024-03-06T01:14:19;101348.66;;;-4.49;76.49
47761;BME280;33524;55.434;38.520;2024-03-06T01:16:47;101338.31;;;-4.69;75.99
47761;BME280;33524;55.434;38.520;2024-03-06T01:19:18;101336.62;;;-4.62;76.36
47761;BME280;33524;55.434;38.520;2024-03-06T01:21:47;101334.09;;;-4.58;76.30
47761;BME280;33524;55.434;38.520;2024-03-06T01:24:18;101338.19;;;-4.94;75.95
47761;BME280;33524;55.434;38.520;2024-03-06T01:26:45;101343.28;;;-4.92;76.46
47761;BME280;33524;55.434;38.520;2024-03-06T01:29:13;101336.47;;;-4.92;77.05
47761;BME280;33524;55.434;38.520;2024-03-06T01:31:42;101332.13;;;-5.03;77.05
47761;BME280;33524;55.434;38.520;2024-03-06T01:34:10;101339.84;;;-5.02;76.73
47761;BME280;33524;55.434;38.520;2024-03-06T01:36:38;101327.94;;;-4.84;77.01
47761;BME280;33524;55.434;38.520;2024-03-06T01:39:06;101332.34;;;-4.67;76.80
47761;BME280;33524;55.434;38.520;2024-03-06T01:41:34;101336.69;;;-4.52;76.55
47761;BME280;33524;55.434;38.520;2024-03-06T01:44:02;101322.91;;;-4.68;76.53
47761;BME280;33524;55.434;38.520;2024-03-06T01:46:34;101335.81;;;-4.55;76.62
47761;BME280;33524;55.434;38.520;2024-03-06T01:49:03;101340.84;;;-4.77;76.79
47761;BME280;33524;55.434;38.520;2024-03-06T01:51:32;101330.66;;;-4.58;76.98
47761;BME280;33524;55.434;38.520;2024-03-06T01:54:01;101343.50;;;-4.55;76.13
47761;BME280;33524;55.434;38.520;2024-03-06T01:56:33;101332.31;;;-4.70;76.37
47761;BME280;33524;55.434;38.520;2024-03-06T01:59:04;101344.31;;;-4.66;77.13
47761;BME280;33524;55.434;38.520;2024-03-06T02:01:32;101348.56;;;-4.72;76.75
47761;BME280;33524;55.434;38.520;2024-03-06T02:04:01;101349.28;;;-4.90;76.79
47761;BME280;33524;55.434;38.520;2024-03-06T02:06:30;101362.00;;;-5.10;76.91
47761;BME280;33524;55.434;38.520;2024-03-06T02:08:58;101355.03;;;-5.27;77.83
47761;BME280;33524;55.434;38.520;2024-03-06T02:11:26;101350.56;;;-5.49;78.23
47761;BME280;33524;55.434;38.520;2024-03-06T02:13:56;101342.00;;;-5.53;79.09
47761;BME280;33524;55.434;38.520;2024-03-06T02:16:24;101344.53;;;-5.56;80.82
47761;BME280;33524;55.434;38.520;2024-03-06T02:18:56;101348.97;;;-5.39;84.29
47761;BME280;33524;55.434;38.520;2024-03-06T02:21:26;101330.44;;;-6.05;83.84
47761;BME280;33524;55.434;38.520;2024-03-06T02:23:54;101353.34;;;-5.24;86.80
47761;BME280;33524;55.434;38.520;2024-03-06T02:26:22;101333.91;;;-4.93;86.02
47761;BME280;33524;55.434;38.520;2024-03-06T02:28:53;101352.25;;;-5.53;84.09
47761;BME280;33524;55.434;38.520;2024-03-06T02:31:22;101351.69;;;-5.15;87.37
47761;BME280;33524;55.434;38.520;2024-03-06T02:33:51;101349.78;;;-5.43;84.47
47761;BME280;33524;55.434;38.520;2024-03-06T02:36:19;101358.00;;;-5.75;86.27
47761;BME280;33524;55.434;38.520;2024-03-06T02:38:47;101365.41;;;-6.06;86.01
47761;BME280;33524;55.434;38.520;2024-03-06T02:41:16;101363.06;;;-6.59;84.47
47761;BME280;33524;55.434;38.520;2024-03-06T02:43:45;101365.34;;;-7.36;85.20
47761;BME280;33524;55.434;38.520;2024-03-06T02:46:14;101366.91;;;-7.42;85.79
47761;BME280;33524;55.434;38.520;2024-03-06T02:48:42;101373.38;;;-7.63;86.90
47761;BME280;33524;55.434;38.520;2024-03-06T02:51:10;101368.16;;;-7.69;86.90
47761;BME280;33524;55.434;38.520;2024-03-06T02:53:38;101370.78;;;-7.66;87.57
47761;BME280;33524;55.434;38.520;2024-03-06T02:56:06;101371.78;;;-7.04;90.80
47761;BME280;33524;55.434;38.520;2024-03-06T02:58:35;101375.25;;;-7.54;88.46
47761;BME280;33524;55.434;38.520;2024-03-06T03:01:04;101383.13;;;-7.42;89.56
47761;BME280;33524;55.434;38.520;2024-03-06T03:03:32;101384.72;;;-7.47;88.82
47761;BME280;33524;55.434;38.520;2024-03-06T03:06:00;101382.28;;;-7.88;87.82
47761;BME280;33524;55.434;38.520;2024-03-06T03:08:29;101385.38;;;-8.06;87.40
47761;BME280;33524;55.434;38.520;2024-03-06T03:10:57;101387.22;;;-8.40;87.58
47761;BME280;33524;55.434;38.520;2024-03-06T03:13:25;101379.81;;;-8.27;88.98
47761;BME280;33524;55.434;38.520;2024-03-06T03:15:54;101391.59;;;-8.34;88.70
47761;BME280;33524;55.434;38.520;2024-03-06T03:18:22;101391.25;;;-8.53;88.01
47761;BME280;33524;55.434;38.520;2024-03-06T03:20:50;101389.50;;;-8.55;88.46
47761;BME280;33524;55.434;38.520;2024-03-06T03:23:19;101397.88;;;-8.61;88.38
47761;BME280;33524;55.434;38.520;2024-03-06T03:25:50;101391.69;;;-8.72;88.65
47761;BME280;33524;55.434;38.520;2024-03-06T03:28:18;101408.50;;;-8.80;89.16
47761;BME280;33524;55.434;38.520;2024-03-06T03:30:47;101404.75;;;-8.57;90.83
47761;BME280;33524;55.434;38.520;2024-03-06T03:33:15;101388.50;;;-8.19;92.62
47761;BME280;33524;55.434;38.520;2024-03-06T03:35:43;101405.03;;;-7.56;93.75
47761;BME280;33524;55.434;38.520;2024-03-06T03:38:11;101399.31;;;-7.41;93.30
47761;BME280;33524;55.434;38.520;2024-03-06T03:40:40;101414.91;;;-7.26;91.69
47761;BME280;33524;55.434;38.520;2024-03-06T03:43:08;101409.78;;;-7.73;91.22
47761;BME280;33524;55.434;38.520;2024-03-06T03:45:36;101399.97;;;-7.01;91.44
47761;BME280;33524;55.434;38.520;2024-03-06T03:48:05;101405.31;;;-6.23;91.45
47761;BME280;33524;55.434;38.520;2024-03-06T03:50:33;101407.13;;;-5.35;90.53
47761;BME280;33524;55.434;38.520;2024-03-06T03:53:02;101407.03;;;-5.43;90.49
47761;BME280;33524;55.434;38.520;2024-03-06T03:55:30;101411.47;;;-5.27;87.13
47761;BME280;33524;55.434;38.520;2024-03-06T03:57:58;101405.63;;;-6.64;85.89
47761;BME280;33524;55.434;38.520;2024-03-06T04:00:26;101409.72;;;-6.77;89.38
47761;BME280;33524;55.434;38.520;2024-03-06T04:02:55;101405.31;;;-5.45;92.53
47761;BME280;33524;55.434;38.520;2024-03-06T04:05:23;101406.37;;;-5.17;90.98
47761;BME280;33524;55.434;38.520;2024-03-06T04:07:51;101414.09;;;-5.17;90.35
47761;BME280;33524;55.434;38.520;2024-03-06T04:10:20;101416.91;;;-5.80;88.17
47761;BME280;33524;55.434;38.520;2024-03-06T04:12:48;101416.16;;;-6.43;88.54
47761;BME280;33524;55.434;38.520;2024-03-06T04:15:16;101416.37;;;-7.87;85.52
47761;BME280;33524;55.434;38.520;2024-03-06T04:17:45;101414.78;;;-7.32;92.98
47761;BME280;33524;55.434;38.520;2024-03-06T04:20:13;101417.06;;;-7.49;92.49
47761;BME280;33524;55.434;38.520;2024-03-06T04:22:44;101417.66;;;-7.64;89.92
47761;BME280;33524;55.434;38.520;2024-03-06T04:25:14;101414.00;;;-7.75;89.99
47761;BME280;33524;55.434;38.520;2024-03-06T04:27:43;101423.72;;;-7.57;91.32
47761;BME280;33524;55.434;38.520;2024-03-06T04:30:11;101421.38;;;-6.95;93.03
47761;BME280;33524;55.434;38.520;2024-03-06T04:32:40;101412.06;;;-7.88;90.34
47761;BME280;33524;55.434;38.520;2024-03-06T04:35:08;101425.44;;;-7.07;92.63
47761;BME280;33524;55.434;38.520;2024-03-06T04:37:40;101430.50;;;-7.09;90.21
47761;BME280;33524;55.434;38.520;2024-03-06T04:40:08;101417.28;;;-6.24;92.70
47761;BME280;33524;55.434;38.520;2024-03-06T04:42:36;101429.09;;;-6.34;89.80
47761;BME280;33524;55.434;38.520;2024-03-06T04:45:12;101420.75;;;-6.80;90.01
47761;BME280;33524;55.434;38.520;2024-03-06T04:47:40;101423.63;;;-5.88;92.66
47761;BME280;33524;55.434;38.520;2024-03-06T04:50:12;101426.75;;;-6.78;91.00
47761;BME280;33524;55.434;38.520;2024-03-06T04:52:42;101427.75;;;-7.70;85.01
47761;BME280;33524;55.434;38.520;2024-03-06T04:55:13;101402.91;;;-8.21;85.39
47761;BME280;33524;55.434;38.520;2024-03-06T04:57:44;101421.69;;;-7.28;86.85
47761;BME280;33524;55.434;38.520;2024-03-06T05:00:12;101425.78;;;-7.38;90.50
47761;BME280;33524;55.434;38.520;2024-03-06T05:02:41;101420.69;;;-8.26;86.22
47761;BME280;33524;55.434;38.520;2024-03-06T05:05:27;101421.81;;;-8.13;86.47
47761;BME280;33524;55.434;38.520;2024-03-06T05:08:13;101407.50;;;-5.82;91.84
47761;BME280;33524;55.434;38.520;2024-03-06T05:11:00;101419.94;;;-7.31;81.97
47761;BME280;33524;55.434;38.520;2024-03-06T05:13:46;101419.19;;;-7.72;86.63
47761;BME280;33524;55.434;38.520;2024-03-06T05:16:31;101415.69;;;-6.16;92.75
47761;BME280;33524;55.434;38.520;2024-03-06T05:19:17;101408.56;;;-6.38;87.93
47761;BME280;33524;55.434;38.520;2024-03-06T05:22:02;101429.50;;;-5.16;91.01
47761;BME280;33524;55.434;38.520;2024-03-06T05:24:48;101412.03;;;-4.43;88.56
47761;BME280;33524;55.434;38.520;2024-03-06T05:27:33;101431.03;;;-4.12;86.89
47761;BME280;33524;55.434;38.520;2024-03-06T05:30:18;101428.53;;;-3.94;86.22
47761;BME280;33524;55.434;38.520;2024-03-06T05:33:04;101436.53;;;-4.93;78.67
47761;BME280;33524;55.434;38.520;2024-03-06T05:35:50;101429.44;;;-3.79;85.74
47761;BME280;33524;55.434;38.520;2024-03-06T05:38:35;101424.66;;;-4.79;86.56
47761;BME280;33524;55.434;38.520;2024-03-06T05:41:21;101437.94;;;-5.28;80.93
47761;BME280;33524;55.434;38.520;2024-03-06T05:44:06;101436.84;;;-4.50;86.78
47761;BME280;33524;55.434;38.520;2024-03-06T05:46:52;101439.59;;;-6.14;80.90
47761;BME280;33524;55.434;38.520;2024-03-06T05:49:37;101430.63;;;-5.73;87.48
47761;BME280;33524;55.434;38.520;2024-03-06T05:52:22;101428.69;;;-5.09;88.40
47761;BME280;33524;55.434;38.520;2024-03-06T05:55:07;101413.69;;;-4.53;86.08
47761;BME280;33524;55.434;38.520;2024-03-06T05:57:53;101431.66;;;-4.56;87.02
47761;BME280;33524;55.434;38.520;2024-03-06T06:00:41;101434.59;;;-5.17;80.76
47761;BME280;33524;55.434;38.520;2024-03-06T06:03:09;101421.22;;;-4.78;82.92
47761;BME280;33524;55.434;38.520;2024-03-06T06:05:40;101443.47;;;-5.72;81.87
47761;BME280;33524;55.434;38.520;2024-03-06T06:08:09;101440.00;;;-5.75;75.80
47761;BME280;33524;55.434;38.520;2024-03-06T06:10:37;101431.62;;;-4.62;86.93
47761;BME280;33524;55.434;38.520;2024-03-06T06:13:05;101441.16;;;-6.23;74.55
47761;BME280;33524;55.434;38.520;2024-03-06T06:15:33;101438.75;;;-5.33;81.90
47761;BME280;33524;55.434;38.520;2024-03-06T06:18:02;101443.34;;;-4.92;84.90
47761;BME280;33524;55.434;38.520;2024-03-06T06:20:30;101433.69;;;-3.94;81.50
47761;BME280;33524;55.434;38.520;2024-03-06T06:22:58;101438.09;;;-3.50;85.23
47761;BME280;33524;55.434;38.520;2024-03-06T06:25:27;101431.28;;;-2.78;83.65
47761;BME280;33524;55.434;38.520;2024-03-06T06:27:55;101434.72;;;-2.75;79.66
47761;BME280;33524;55.434;38.520;2024-03-06T06:30:23;101443.22;;;-3.65;73.32
47761;BME280;33524;55.434;38.520;2024-03-06T06:32:51;101436.38;;;-3.51;77.31
47761;BME280;33524;55.434;38.520;2024-03-06T06:35:20;101429.38;;;-3.99;73.35
47761;BME280;33524;55.434;38.520;2024-03-06T06:37:48;101437.06;;;-4.04;74.46
47761;BME280;33524;55.434;38.520;2024-03-06T06:40:16;101415.53;;;-4.29;73.40
47761;BME280;33524;55.434;38.520;2024-03-06T06:42:45;101437.91;;;-4.03;73.30
47761;BME280;33524;55.434;38.520;2024-03-06T06:45:21;101444.69;;;-4.26;71.24
47761;BME280;33524;55.434;38.520;2024-03-06T06:47:52;101445.00;;;-3.16;79.16
47761;BME280;33524;55.434;38.520;2024-03-06T06:50:21;101445.84;;;-3.40;69.29
47761;BME280;33524;55.434;38.520;2024-03-06T06:52:55;101440.72;;;-3.22;68.49
47761;BME280;33524;55.434;38.520;2024-03-06T06:55:26;101447.59;;;-3.09;67.32
47761;BME280;33524;55.434;38.520;2024-03-06T06:57:54;101453.63;;;-2.85;65.05
47761;BME280;33524;55.434;38.520;2024-03-06T07:00:24;101449.28;;;-2.68;64.95
47761;BME280;33524;55.434;38.520;2024-03-06T07:02:53;101445.81;;;-2.48;63.27
47761;BME280;33524;55.434;38.520;2024-03-06T07:05:21;101442.38;;;-2.41;61.56
47761;BME280;33524;55.434;38.520;2024-03-06T07:07:49;101444.88;;;-2.13;61.10
47761;BME280;33524;55.434;38.520;2024-03-06T07:10:22;101447.50;;;-2.26;60.27
47761;BME280;33524;55.434;38.520;2024-03-06T07:12:50;101438.91;;;-2.26;59.71
47761;BME280;33524;55.434;38.520;2024-03-06T07:15:18;101444.88;;;-2.03;59.68
47761;BME280;33524;55.434;38.520;2024-03-06T07:17:47;101450.78;;;-1.77;58.22
47761;BME280;33524;55.434;38.520;2024-03-06T07:20:16;101453.25;;;-1.64;54.86
47761;BME280;33524;55.434;38.520;2024-03-06T07:22:44;101453.78;;;-1.05;54.89
47761;BME280;33524;55.434;38.520;2024-03-06T07:25:13;101457.69;;;-0.61;54.04
47761;BME280;33524;55.434;38.520;2024-03-06T07:27:41;101442.78;;;-0.31;52.88
47761;BME280;33524;55.434;38.520;2024-03-06T07:30:10;101458.03;;;-0.09;51.63
47761;BME280;33524;55.434;38.520;2024-03-06T07:32:41;101445.94;;;-0.07;51.18
47761;BME280;33524;55.434;38.520;2024-03-06T07:35:09;101444.97;;;0.05;51.44
47761;BME280;33524;55.434;38.520;2024-03-06T07:37:38;101439.75;;;0.06;52.65
47761;BME280;33524;55.434;38.520;2024-03-06T07:40:07;101458.44;;;0.28;52.80
47761;BME280;33524;55.434;38.520;2024-03-06T07:42:37;101468.63;;;0.40;53.84
47761;BME280;33524;55.434;38.520;2024-03-06T07:45:06;101471.22;;;0.42;52.39
47761;BME280;33524;55.434;38.520;2024-03-06T07:47:37;101469.56;;;0.35;53.58
47761;BME280;33524;55.434;38.520;2024-03-06T07:50:07;101469.62;;;0.32;54.39
47761;BME280;33524;55.434;38.520;2024-03-06T07:52:35;101469.56;;;0.35;54.19
47761;BME280;33524;55.434;38.520;2024-03-06T07:55:04;101466.97;;;0.35;54.80
47761;BME280;33524;55.434;38.520;2024-03-06T07:57:33;101476.91;;;0.66;52.63
47761;BME280;33524;55.434;38.520;2024-03-06T08:00:02;101464.47;;;0.91;51.31
47761;BME280;33524;55.434;38.520;2024-03-06T08:02:38;101459.28;;;0.91;51.95
47761;BME280;33524;55.434;38.520;2024-03-06T08:05:11;101465.91;;;1.10;50.43
47761;BME280;33524;55.434;38.520;2024-03-06T08:07:43;101466.53;;;1.26;49.86
47761;BME280;33524;55.434;38.520;2024-03-06T08:10:13;101450.16;;;1.23;50.37
47761;BME280;33524;55.434;38.520;2024-03-06T08:12:44;101467.09;;;1.42;52.64
47761;BME280;33524;55.434;38.520;2024-03-06T08:15:13;101465.44;;;1.36;52.93
47761;BME280;33524;55.434;38.520;2024-03-06T08:17:43;101459.56;;;1.28;55.32
47761;BME280;33524;55.434;38.520;2024-03-06T08:20:12;101457.69;;;1.36;53.46
47761;BME280;33524;55.434;38.520;2024-03-06T08:22:42;101456.78;;;1.39;53.44
47761;BME280;33524;55.434;38.520;2024-03-06T08:25:11;101460.09;;;1.47;51.18
47761;BME280;33524;55.434;38.520;2024-03-06T08:27:41;101440.00;;;1.58;54.83
47761;BME280;33524;55.434;38.520;2024-03-06T08:30:10;101457.78;;;1.80;50.63
47761;BME280;33524;55.434;38.520;2024-03-06T08:32:39;101452.28;;;1.49;49.92
47761;BME280;33524;55.434;38.520;2024-03-06T08:35:12;101464.09;;;1.65;51.82
47761;BME280;33524;55.434;38.520;2024-03-06T08:37:46;101460.31;;;1.81;49.18
47761;BME280;33524;55.434;38.520;2024-03-06T08:40:15;101456.06;;;1.77;53.69
47761;BME280;33524;55.434;38.520;2024-03-06T08:42:44;101433.31;;;1.47;51.14
47761;BME280;33524;55.434;38.520;2024-03-06T08:45:16;101469.03;;;1.29;49.46
47761;BME280;33524;55.434;38.520;2024-03-06T08:47:45;101456.63;;;1.47;50.43
47761;BME280;33524;55.434;38.520;2024-03-06T08:50:16;101449.78;;;1.44;53.55
47761;BME280;33524;55.434;38.520;2024-03-06T08:52:45;101447.88;;;1.55;54.15
47761;BME280;33524;55.434;38.520;2024-03-06T08:55:14;101458.50;;;1.88;54.30
47761;BME280;33524;55.434;38.520;2024-03-06T08:57:43;101438.84;;;1.75;53.12
47761;BME280;33524;55.434;38.520;2024-03-06T09:00:12;101459.12;;;1.99;51.18
47761;BME280;33524;55.434;38.520;2024-03-06T09:02:40;101451.34;;;1.98;47.96
47761;BME280;33524;55.434;38.520;2024-03-06T09:05:10;101443.06;;;1.80;48.45
47761;BME280;33524;55.434;38.520;2024-03-06T09:07:41;101453.00;;;1.57;46.73
47761;BME280;33524;55.434;38.520;2024-03-06T09:10:10;101461.09;;;0.86;47.73
47761;BME280;33524;55.434;38.520;2024-03-06T09:12:39;101459.94;;;1.05;48.29
47761;BME280;33524;55.434;38.520;2024-03-06T09:15:08;101448.31;;;1.29;48.91
47761;BME280;33524;55.434;38.520;2024-03-06T09:17:38;101445.31;;;1.51;47.33
47761;BME280;33524;55.434;38.520;2024-03-06T09:20:08;101433.75;;;1.70;48.13
47761;BME280;33524;55.434;38.520;2024-03-06T09:22:42;101443.34;;;2.09;49.40
47761;BME280;33524;55.434;38.520;2024-03-06T09:25:11;101441.66;;;2.08;48.35
47761;BME280;33524;55.434;38.520;2024-03-06T09:27:44;101448.16;;;0.24;46.81
47761;BME280;33524;55.434;38.520;2024-03-06T09:30:13;101446.28;;;-0.38;48.88
47761;BME280;33524;55.434;38.520;2024-03-06T09:32:41;101442.59;;;0.51;48.17
47761;BME280;33524;55.434;38.520;2024-03-06T09:35:12;101446.50;;;0.80;47.99
47761;BME280;33524;55.434;38.520;2024-03-06T09:37:42;101431.75;;;0.26;47.95
47761;BME280;33524;55.434;38.520;2024-03-06T09:40:21;101441.81;;;0.46;47.79
47761;BME280;33524;55.434;38.520;2024-03-06T09:42:50;101442.84;;;0.34;48.61
47761;BME280;33524;55.434;38.520;2024-03-06T09:45:19;101418.00;;;0.82;48.93
47761;BME280;33524;55.434;38.520;2024-03-06T09:47:51;101446.13;;;0.47;46.74
47761;BME280;33524;55.434;38.520;2024-03-06T09:50:24;101444.69;;;0.25;47.21
47761;BME280;33524;55.434;38.520;2024-03-06T09:52:55;101435.09;;;-0.42;48.40
47761;BME280;33524;55.434;38.520;2024-03-06T09:55:25;101440.34;;;0.27;47.14
47761;BME280;33524;55.434;38.520;2024-03-06T09:57:53;101438.09;;;0.66;46.96
47761;BME280;33524;55.434;38.520;2024-03-06T10:00:21;101431.94;;;1.27;48.99
47761;BME280;33524;55.434;38.520;2024-03-06T10:03:03;101437.81;;;0.84;46.48
47761;BME280;33524;55.434;38.520;2024-03-06T10:05:33;101438.38;;;1.53;46.78
47761;BME280;33524;55.434;38.520;2024-03-06T10:08:03;101429.38;;;1.74;46.67
47761;BME280;33524;55.434;38.520;2024-03-06T10:10:32;101401.34;;;1.91;47.49
47761;BME280;33524;55.434;38.520;2024-03-06T10:13:01;101422.34;;;1.79;45.02
47761;BME280;33524;55.434;38.520;2024-03-06T10:15:30;101426.50;;;2.30;47.98
47761;BME280;33524;55.434;38.520;2024-03-06T10:18:15;101421.09;;;2.39;46.06
47761;BME280;33524;55.434;38.520;2024-03-06T10:20:44;101415.72;;;2.48;44.96
47761;BME280;33524;55.434;38.520;2024-03-06T10:23:12;101409.63;;;2.48;44.84
47761;BME280;33524;55.434;38.520;2024-03-06T10:25:43;101405.47;;;2.79;47.63
47761;BME280;33524;55.434;38.520;2024-03-06T10:28:12;101411.94;;;2.61;46.93
47761;BME280;33524;55.434;38.520;2024-03-06T10:30:42;101409.34;;;2.22;46.12
47761;BME280;33524;55.434;38.520;2024-03-06T10:33:12;101409.94;;;1.95;45.12
47761;BME280;33524;55.434;38.520;2024-03-06T10:35:43;101398.50;;;2.44;47.25
47761;BME280;33524;55.434;38.520;2024-03-06T10:38:12;101407.22;;;1.99;45.86
47761;BME280;33524;55.434;38.520;2024-03-06T10:40:42;101402.19;;;1.47;43.11
47761;BME280;33524;55.434;38.520;2024-03-06T10:43:11;101405.12;;;0.16;46.47
47761;BME280;33524;55.434;38.520;2024-03-06T10:45:50;101403.22;;;0.87;44.54
47761;BME280;33524;55.434;38.520;2024-03-06T10:48:20;101409.13;;;0.98;45.30
47761;BME280;33524;55.434;38.520;2024-03-06T10:50:49;101370.31;;;1.87;47.77
47761;BME280;33524;55.434;38.520;2024-03-06T10:53:18;101394.88;;;2.50;47.04
47761;BME280;33524;55.434;38.520;2024-03-06T10:55:50;101395.06;;;2.79;46.20
47761;BME280;33524;55.434;38.520;2024-03-06T10:58:20;101391.44;;;2.85;44.99
47761;BME280;33524;55.434;38.520;2024-03-06T11:00:48;101395.75;;;2.50;42.49
47761;BME280;33524;55.434;38.520;2024-03-06T11:03:18;101398.34;;;2.11;42.72
47761;BME280;33524;55.434;38.520;2024-03-06T11:05:49;101396.63;;;2.10;43.04
47761;BME280;33524;55.434;38.520;2024-03-06T11:08:20;101389.03;;;2.01;42.99
47761;BME280;33524;55.434;38.520;2024-03-06T11:10:49;101391.03;;;1.88;43.74
47761;BME280;33524;55.434;38.520;2024-03-06T11:15:46;101389.66;;;1.70;44.83
47761;BME280;33524;55.434;38.520;2024-03-06T11:23:31;101390.50;;;1.71;42.08
47761;BME280;33524;55.434;38.520;2024-03-06T11:26:05;101390.28;;;2.24;42.81
47761;BME280;33524;55.434;38.520;2024-03-06T11:28:36;101385.87;;;1.43;43.33
47761;BME280;33524;55.434;38.520;2024-03-06T11:31:10;101386.53;;;0.52;43.94
47761;BME280;33524;55.434;38.520;2024-03-06T11:33:47;101381.09;;;1.65;44.16
47761;BME280;33524;55.434;38.520;2024-03-06T11:36:25;101361.75;;;1.81;42.42
47761;BME280;33524;55.434;38.520;2024-03-06T11:41:28;101369.56;;;1.36;41.11
47761;BME280;33524;55.434;38.520;2024-03-06T11:43:59;101370.31;;;1.87;41.79
47761;BME280;33524;55.434;38.520;2024-03-06T11:46:56;101366.50;;;2.03;42.06
47761;BME280;33524;55.434;38.520;2024-03-06T11:49:30;101362.44;;;1.91;41.67
47761;BME280;33524;55.434;38.520;2024-03-06T11:52:07;101356.91;;;1.66;41.38
47761;BME280;33524;55.434;38.520;2024-03-06T11:54:37;101357.38;;;1.85;41.09
47761;BME280;33524;55.434;38.520;2024-03-06T11:57:05;101351.81;;;2.02;41.53
47761;BME280;33524;55.434;38.520;2024-03-06T11:59:36;101351.63;;;2.11;41.38
47761;BME280;33524;55.434;38.520;2024-03-06T12:02:08;101352.31;;;1.79;41.24
47761;BME280;33524;55.434;38.520;2024-03-06T12:04:38;101337.19;;;2.37;42.22
47761;BME280;33524;55.434;38.520;2024-03-06T12:07:09;101350.47;;;2.23;40.85
47761;BME280;33524;55.434;38.520;2024-03-06T12:09:38;101344.94;;;2.40;40.69
47761;BME280;33524;55.434;38.520;2024-03-06T12:12:10;101345.34;;;2.21;41.54
47761;BME280;33524;55.434;38.520;2024-03-06T12:14:40;101336.22;;;2.41;42.96
47761;BME280;33524;55.434;38.520;2024-03-06T12:17:14;101340.75;;;1.94;40.96
47761;BME280;33524;55.434;38.520;2024-03-06T12:19:44;101333.94;;;2.27;42.28
47761;BME280;33524;55.434;38.520;2024-03-06T12:22:15;101326.34;;;2.91;41.92
47761;BME280;33524;55.434;38.520;2024-03-06T12:24:43;101313.12;;;1.93;38.10
47761;BME280;33524;55.434;38.520;2024-03-06T12:27:12;101332.66;;;2.08;39.34
47761;BME280;33524;55.434;38.520;2024-03-06T12:29:41;101331.28;;;2.32;41.15
47761;BME280;33524;55.434;38.520;2024-03-06T12:32:17;101329.22;;;2.46;41.80
47761;BME280;33524;55.434;38.520;2024-03-06T12:35:05;101319.56;;;2.50;40.82
47761;BME280;33524;55.434;38.520;2024-03-06T12:37:35;101327.47;;;2.09;38.42
47761;BME280;33524;55.434;38.520;2024-03-06T12:40:04;101325.81;;;1.63;40.26
47761;BME280;33524;55.434;38.520;2024-03-06T12:42:42;101329.03;;;2.15;40.87
47761;BME280;33524;55.434;38.520;2024-03-06T12:45:12;101322.81;;;2.24;40.34
47761;BME280;33524;55.434;38.520;2024-03-06T12:47:44;101329.75;;;1.83;40.67
47761;BME280;33524;55.434;38.520;2024-03-06T12:50:16;101321.16;;;2.19;40.65
47761;BME280;33524;55.434;38.520;2024-03-06T12:52:44;101320.97;;;1.01;40.06
47761;BME280;33524;55.434;38.520;2024-03-06T12:55:13;101320.00;;;1.53;41.08
47761;BME280;33524;55.434;38.520;2024-03-06T12:57:43;101315.69;;;1.51;40.23
47761;BME280;33524;55.434;38.520;2024-03-06T13:00:12;101313.84;;;1.14;40.16
47761;BME280;33524;55.434;38.520;2024-03-06T13:02:45;101309.41;;;1.19;40.75
47761;BME280;33524;55.434;38.520;2024-03-06T13:05:14;101307.03;;;1.08;41.51
47761;BME280;33524;55.434;38.520;2024-03-06T13:07:43;101314.06;;;1.02;40.33
47761;BME280;33524;55.434;38.520;2024-03-06T13:10:11;101301.50;;;1.27;41.77